sensor_id;sensor_type;location;lat;lon;timestamp;pressure;altitude;pressure_sealevel;temperature;humidity
40708;BME280;26392;42.696;23.350;2022-11-15T00:00:30;95955.25;;;4.07;100.00
40708;BME280;26392;42.696;23.350;2022-11-15T00:02:55;95948.13;;;3.99;100.00
40708;BME280;26392;42.696;23.350;2022-11-15T00:05:21;95950.97;;;3.91;100.00
40708;BME280;26392;42.696;23.350;2022-11-15T00:07:46;95953.03;;;3.89;100.00
40708;BME280;26392;42.696;23.350;2022-11-15T00:10:12;95947.66;;;3.89;100.00
40708;BME280;26392;42.696;23.350;2022-11-15T00:12:37;95949.31;;;3.90;100.00
40708;BME280;26392;42.696;23.350;2022-11-15T00:15:03;95952.78;;;3.84;100.00
40708;BME280;26392;42.696;23.350;2022-11-15T00:17:28;95955.59;;;3.69;100.00
40708;BME280;26392;42.696;23.350;2022-11-15T00:19:54;95954.75;;;3.62;100.00
40708;BME280;26392;42.696;23.350;2022-11-15T00:22:20;95949.97;;;3.64;100.00
40708;BME280;26392;42.696;23.350;2022-11-15T00:24:45;95947.47;;;3.62;100.00
40708;BME280;26392;42.696;23.350;2022-11-15T00:27:11;95946.28;;;3.71;100.00
40708;BME280;26392;42.696;23.350;2022-11-15T00:29:36;95941.97;;;3.77;100.00
40708;BME280;26392;42.696;23.350;2022-11-15T00:32:04;95941.97;;;3.77;100.00
40708;BME280;26392;42.696;23.350;2022-11-15T00:34:30;95940.50;;;3.74;100.00
40708;BME280;26392;42.696;23.350;2022-11-15T00:36:55;95936.41;;;3.78;100.00
40708;BME280;26392;42.696;23.350;2022-11-15T00:39:21;95937.22;;;3.79;100.00
40708;BME280;26392;42.696;23.350;2022-11-15T00:41:46;95936.19;;;3.80;100.00
40708;BME280;26392;42.696;23.350;2022-11-15T00:44:11;95926.22;;;3.80;100.00
40708;BME280;26392;42.696;23.350;2022-11-15T00:46:37;95927.28;;;3.79;100.00
40708;BME280;26392;42.696;23.350;2022-11-15T00:49:02;95928.31;;;3.78;100.00
40708;BME280;26392;42.696;23.350;2022-11-15T00:51:27;95934.72;;;3.77;100.00
40708;BME280;26392;42.696;23.350;2022-11-15T00:53:53;95926.84;;;3.76;100.00
40708;BME280;26392;42.696;23.350;2022-11-15T00:56:19;95931.19;;;3.77;100.00
40708;BME280;26392;42.696;23.350;2022-11-15T00:58:44;95926.44;;;3.79;100.00
40708;BME280;26392;42.696;23.350;2022-11-15T01:01:13;95923.88;;;3.64;100.00
40708;BME280;26392;42.696;23.350;2022-11-15T01:03:39;95914.06;;;3.56;100.00
40708;BME280;26392;42.696;23.350;2022-11-15T01:06:06;95924.88;;;3.63;100.00
40708;BME280;26392;42.696;23.350;2022-11-15T01:08:31;95918.09;;;3.67;100.00
40708;BME280;26392;42.696;23.350;2022-11-15T01:11:04;95923.88;;;3.64;100.00
40708;BME280;26392;42.696;23.350;2022-11-15T01:13:32;95924.69;;;3.65;100.00
40708;BME280;26392;42.696;23.350;2022-11-15T01:15:58;95918.09;;;3.67;100.00
40708;BME280;26392;42.696;23.350;2022-11-15T01:18:24;95926.75;;;3.63;100.00
40708;BME280;26392;42.696;23.350;2022-11-15T01:20:49;95922.63;;;3.67;100.00
40708;BME280;26392;42.696;23.350;2022-11-15T01:23:15;95923.22;;;3.62;100.00
40708;BME280;26392;42.696;23.350;2022-11-15T01:25:40;95914.50;;;3.60;100.00
40708;BME280;26392;42.696;23.350;2022-11-15T01:28:05;95920.94;;;3.59;100.00
40708;BME280;26392;42.696;23.350;2022-11-15T01:30:31;95921.00;;;3.44;100.00
40708;BME280;26392;42.696;23.350;2022-11-15T01:32:56;95919.06;;;3.31;100.00
40708;BME280;26392;42.696;23.350;2022-11-15T01:35:21;95911.13;;;3.23;100.00
40708;BME280;26392;42.696;23.350;2022-11-15T01:37:47;95919.84;;;3.25;100.00
40708;BME280;26392;42.696;23.350;2022-11-15T01:40:12;95914.47;;;3.25;100.00
40708;BME280;26392;42.696;23.350;2022-11-15T01:42:38;95919.59;;;3.20;100.00
40708;BME280;26392;42.696;23.350;2022-11-15T01:45:03;95915.13;;;3.06;100.00
40708;BME280;26392;42.696;23.350;2022-11-15T01:47:32;95916.59;;;3.08;100.00
40708;BME280;26392;42.696;23.350;2022-11-15T01:50:14;95911.78;;;3.04;100.00
40708;BME280;26392;42.696;23.350;2022-11-15T01:52:42;95914.72;;;3.09;100.00
40708;BME280;26392;42.696;23.350;2022-11-15T01:57:39;95912.59;;;3.04;100.00
40708;BME280;26392;42.696;23.350;2022-11-15T02:00:07;95910.88;;;2.97;100.00
40708;BME280;26392;42.696;23.350;2022-11-15T02:02:33;95907.03;;;3.06;100.00
40708;BME280;26392;42.696;23.350;2022-11-15T02:05:00;95905.50;;;2.97;100.00
40708;BME280;26392;42.696;23.350;2022-11-15T02:07:26;95911.13;;;3.02;100.00
40708;BME280;26392;42.696;23.350;2022-11-15T02:09:52;95914.34;;;3.12;100.00
40708;BME280;26392;42.696;23.350;2022-11-15T02:12:20;95912.34;;;3.21;100.00
40708;BME280;26392;42.696;23.350;2022-11-15T02:14:51;95910.91;;;3.25;100.00
40708;BME280;26392;42.696;23.350;2022-11-15T02:29:05;95909.66;;;2.99;100.00
40708;BME280;26392;42.696;23.350;2022-11-15T02:31:48;95907.56;;;2.95;100.00
40708;BME280;26392;42.696;23.350;2022-11-15T02:42:27;95902.75;;;2.90;100.00
40708;BME280;26392;42.696;23.350;2022-11-15T02:45:19;95895.75;;;2.74;100.00
40708;BME280;26392;42.696;23.350;2022-11-15T02:47:47;95898.84;;;2.71;100.00
40708;BME280;26392;42.696;23.350;2022-11-15T02:50:20;95908.50;;;2.65;100.00
40708;BME280;26392;42.696;23.350;2022-11-15T02:52:50;95906.72;;;2.73;100.00
40708;BME280;26392;42.696;23.350;2022-11-15T02:55:34;95908.47;;;2.80;100.00
40708;BME280;26392;42.696;23.350;2022-11-15T03:00:35;95911.59;;;2.84;100.00
40708;BME280;26392;42.696;23.350;2022-11-15T03:11:18;95911.34;;;3.00;100.00
40708;BME280;26392;42.696;23.350;2022-11-15T03:16:38;95906.75;;;2.94;100.00
40708;BME280;26392;42.696;23.350;2022-11-15T03:19:12;95902.44;;;3.00;100.00
40708;BME280;26392;42.696;23.350;2022-11-15T03:21:39;95903.44;;;2.99;100.00
40708;BME280;26392;42.696;23.350;2022-11-15T03:24:06;95904.09;;;3.01;100.00
40708;BME280;26392;42.696;23.350;2022-11-15T03:26:35;95899.78;;;3.06;100.00
40708;BME280;26392;42.696;23.350;2022-11-15T03:29:13;95908.31;;;3.10;100.00
40708;BME280;26392;42.696;23.350;2022-11-15T03:31:45;95902.34;;;3.14;100.00
40708;BME280;26392;42.696;23.350;2022-11-15T03:34:19;95882.41;;;3.09;100.00
40708;BME280;26392;42.696;23.350;2022-11-15T03:36:47;95898.84;;;3.14;100.00
40708;BME280;26392;42.696;23.350;2022-11-15T03:39:13;95892.06;;;3.25;100.00
40708;BME280;26392;42.696;23.350;2022-11-15T03:47:11;95889.97;;;3.20;100.00
40708;BME280;26392;42.696;23.350;2022-11-15T03:49:42;95878.50;;;3.11;100.00
40708;BME280;26392;42.696;23.350;2022-11-15T03:52:10;95877.44;;;3.06;100.00
40708;BME280;26392;42.696;23.350;2022-11-15T03:54:36;95878.66;;;3.03;100.00
40708;BME280;26392;42.696;23.350;2022-11-15T03:57:01;95881.78;;;3.07;100.00
40708;BME280;26392;42.696;23.350;2022-11-15T03:59:27;95876.00;;;3.10;100.00
40708;BME280;26392;42.696;23.350;2022-11-15T04:01:52;95872.34;;;2.96;100.00
40708;BME280;26392;42.696;23.350;2022-11-15T04:04:17;95872.88;;;2.85;100.00
40708;BME280;26392;42.696;23.350;2022-11-15T04:06:43;95881.78;;;2.85;100.00
40708;BME280;26392;42.696;23.350;2022-11-15T04:09:08;95879.34;;;2.90;100.00
40708;BME280;26392;42.696;23.350;2022-11-15T04:11:34;95865.06;;;2.90;100.00
40708;BME280;26392;42.696;23.350;2022-11-15T04:13:59;95859.16;;;2.80;100.00
40708;BME280;26392;42.696;23.350;2022-11-15T04:16:24;95864.38;;;2.81;100.00
40708;BME280;26392;42.696;23.350;2022-11-15T04:18:50;95865.75;;;2.77;100.00
40708;BME280;26392;42.696;23.350;2022-11-15T04:21:35;95859.00;;;2.81;100.00
40708;BME280;26392;42.696;23.350;2022-11-15T04:24:19;95857.69;;;2.77;100.00
40708;BME280;26392;42.696;23.350;2022-11-15T04:26:44;95862.31;;;2.83;100.00
40708;BME280;26392;42.696;23.350;2022-11-15T04:29:10;95858.59;;;2.84;100.00
40708;BME280;26392;42.696;23.350;2022-11-15T04:31:54;95854.38;;;2.75;100.00
40708;BME280;26392;42.696;23.350;2022-11-15T04:34:19;95863.75;;;2.58;100.00
40708;BME280;26392;42.696;23.350;2022-11-15T04:36:44;95850.22;;;2.51;100.00
40708;BME280;26392;42.696;23.350;2022-11-15T04:39:28;95854.59;;;2.52;100.00
40708;BME280;26392;42.696;23.350;2022-11-15T04:41:53;95863.97;;;2.63;100.00
40708;BME280;26392;42.696;23.350;2022-11-15T04:44:19;95858.69;;;2.69;100.00
40708;BME280;26392;42.696;23.350;2022-11-15T04:46:44;95856.44;;;2.73;100.00
40708;BME280;26392;42.696;23.350;2022-11-15T04:49:10;95865.41;;;2.80;100.00
40708;BME280;26392;42.696;23.350;2022-11-15T04:51:35;95867.63;;;2.77;100.00
40708;BME280;26392;42.696;23.350;2022-11-15T04:54:00;95862.72;;;2.80;100.00
40708;BME280;26392;42.696;23.350;2022-11-15T04:56:26;95872.69;;;2.86;100.00
40708;BME280;26392;42.696;23.350;2022-11-15T04:58:51;95861.72;;;2.88;100.00
40708;BME280;26392;42.696;23.350;2022-11-15T05:01:17;95859.50;;;2.91;100.00
40708;BME280;26392;42.696;23.350;2022-11-15T05:03:43;95864.94;;;2.98;100.00
40708;BME280;26392;42.696;23.350;2022-11-15T05:06:28;95869.59;;;3.11;100.00
40708;BME280;26392;42.696;23.350;2022-11-15T05:08:53;95861.75;;;3.16;100.00
40708;BME280;26392;42.696;23.350;2022-11-15T05:11:19;95861.34;;;3.19;100.00
40708;BME280;26392;42.696;23.350;2022-11-15T05:13:46;95862.69;;;3.30;100.00
40708;BME280;26392;42.696;23.350;2022-11-15T05:16:11;95873.03;;;3.26;100.00
40708;BME280;26392;42.696;23.350;2022-11-15T05:18:36;95868.13;;;3.36;100.00
40708;BME280;26392;42.696;23.350;2022-11-15T05:21:06;95857.78;;;3.40;100.00
40708;BME280;26392;42.696;23.350;2022-11-15T05:23:32;95849.50;;;3.42;100.00
40708;BME280;26392;42.696;23.350;2022-11-15T05:26:02;95859.13;;;3.57;100.00
40708;BME280;26392;42.696;23.350;2022-11-15T05:28:28;95864.78;;;3.63;100.00
40708;BME280;26392;42.696;23.350;2022-11-15T05:31:03;95864.94;;;3.61;100.00
40708;BME280;26392;42.696;23.350;2022-11-15T05:33:30;95859.97;;;3.58;100.00
40708;BME280;26392;42.696;23.350;2022-11-15T05:36:00;95850.91;;;3.66;100.00
40708;BME280;26392;42.696;23.350;2022-11-15T05:38:28;95854.25;;;3.74;100.00
40708;BME280;26392;42.696;23.350;2022-11-15T05:40:54;95852.22;;;3.83;100.00
40708;BME280;26392;42.696;23.350;2022-11-15T05:43:19;95851.97;;;3.71;100.00
40708;BME280;26392;42.696;23.350;2022-11-15T05:45:45;95855.53;;;3.78;100.00
40708;BME280;26392;42.696;23.350;2022-11-15T05:48:11;95855.16;;;3.88;100.00
40708;BME280;26392;42.696;23.350;2022-11-15T05:50:38;95854.41;;;4.01;100.00
40708;BME280;26392;42.696;23.350;2022-11-15T05:53:06;95855.22;;;4.01;100.00
40708;BME280;26392;42.696;23.350;2022-11-15T05:55:32;95862.59;;;3.86;100.00
40708;BME280;26392;42.696;23.350;2022-11-15T05:57:57;95860.97;;;3.92;100.00
40708;BME280;26392;42.696;23.350;2022-11-15T06:00:23;95865.19;;;4.08;100.00
40708;BME280;26392;42.696;23.350;2022-11-15T06:02:48;95866.09;;;4.21;100.00
40708;BME280;26392;42.696;23.350;2022-11-15T06:05:14;95860.88;;;4.20;100.00
40708;BME280;26392;42.696;23.350;2022-11-15T06:07:39;95863.22;;;4.30;100.00
40708;BME280;26392;42.696;23.350;2022-11-15T06:10:05;95870.31;;;4.37;100.00
40708;BME280;26392;42.696;23.350;2022-11-15T06:12:31;95873.66;;;4.46;100.00
40708;BME280;26392;42.696;23.350;2022-11-15T06:14:56;95871.13;;;4.44;100.00
40708;BME280;26392;42.696;23.350;2022-11-15T06:17:21;95865.31;;;4.41;100.00
40708;BME280;26392;42.696;23.350;2022-11-15T06:19:47;95868.25;;;4.59;100.00
40708;BME280;26392;42.696;23.350;2022-11-15T06:22:12;95870.78;;;4.67;100.00
40708;BME280;26392;42.696;23.350;2022-11-15T06:24:37;95868.75;;;4.76;100.00
40708;BME280;26392;42.696;23.350;2022-11-15T06:27:03;95865.63;;;4.79;100.00
40708;BME280;26392;42.696;23.350;2022-11-15T06:29:28;95868.06;;;4.67;100.00
40708;BME280;26392;42.696;23.350;2022-11-15T06:31:54;95859.97;;;4.67;100.00
40708;BME280;26392;42.696;23.350;2022-11-15T06:34:19;95869.13;;;4.73;100.00
40708;BME280;26392;42.696;23.350;2022-11-15T06:36:45;95868.50;;;4.84;100.00
40708;BME280;26392;42.696;23.350;2022-11-15T06:39:11;95862.31;;;4.90;100.00
40708;BME280;26392;42.696;23.350;2022-11-15T06:41:36;95861.47;;;4.90;100.00
40708;BME280;26392;42.696;23.350;2022-11-15T06:44:02;95859.63;;;4.90;100.00
40708;BME280;26392;42.696;23.350;2022-11-15T06:46:28;95855.47;;;4.88;100.00
40708;BME280;26392;42.696;23.350;2022-11-15T06:48:54;95856.19;;;4.42;100.00
40708;BME280;26392;42.696;23.350;2022-11-15T06:51:20;95862.63;;;4.34;100.00
40708;BME280;26392;42.696;23.350;2022-11-15T06:53:45;95863.69;;;4.46;100.00
40708;BME280;26392;42.696;23.350;2022-11-15T06:56:11;95858.28;;;4.53;100.00
40708;BME280;26392;42.696;23.350;2022-11-15T06:58:36;95857.06;;;4.56;100.00
40708;BME280;26392;42.696;23.350;2022-11-15T07:01:11;95872.22;;;4.70;100.00
40708;BME280;26392;42.696;23.350;2022-11-15T07:03:37;95860.63;;;4.76;100.00
40708;BME280;26392;42.696;23.350;2022-11-15T07:06:03;95866.03;;;4.89;100.00
40708;BME280;26392;42.696;23.350;2022-11-15T07:08:29;95860.03;;;4.87;100.00
40708;BME280;26392;42.696;23.350;2022-11-15T07:10:57;95854.41;;;5.09;100.00
40708;BME280;26392;42.696;23.350;2022-11-15T07:13:27;95857.75;;;5.24;100.00
40708;BME280;26392;42.696;23.350;2022-11-15T07:15:53;95854.84;;;5.32;100.00
40708;BME280;26392;42.696;23.350;2022-11-15T07:18:18;95851.69;;;5.49;100.00
40708;BME280;26392;42.696;23.350;2022-11-15T07:20:44;95848.97;;;5.49;100.00
40708;BME280;26392;42.696;23.350;2022-11-15T07:23:09;95837.53;;;5.53;100.00
40708;BME280;26392;42.696;23.350;2022-11-15T07:25:35;95849.19;;;5.60;99.92
40708;BME280;26392;42.696;23.350;2022-11-15T07:28:01;95851.69;;;5.49;100.00
40708;BME280;26392;42.696;23.350;2022-11-15T07:30:27;95858.34;;;5.39;100.00
40708;BME280;26392;42.696;23.350;2022-11-15T07:32:57;95848.78;;;5.50;100.00
40708;BME280;26392;42.696;23.350;2022-11-15T07:35:23;95855.66;;;5.39;100.00
40708;BME280;26392;42.696;23.350;2022-11-15T07:38:02;95849.00;;;5.55;100.00
40708;BME280;26392;42.696;23.350;2022-11-15T07:40:31;95852.69;;;5.68;100.00
40708;BME280;26392;42.696;23.350;2022-11-15T07:43:04;95848.97;;;5.69;100.00
40708;BME280;26392;42.696;23.350;2022-11-15T07:45:31;95854.56;;;5.74;100.00
40708;BME280;26392;42.696;23.350;2022-11-15T07:47:59;95856.03;;;5.70;100.00
40708;BME280;26392;42.696;23.350;2022-11-15T07:50:25;95847.31;;;5.48;100.00
40708;BME280;26392;42.696;23.350;2022-11-15T07:52:56;95844.84;;;5.39;100.00
40708;BME280;26392;42.696;23.350;2022-11-15T07:55:23;95847.31;;;5.48;100.00
40708;BME280;26392;42.696;23.350;2022-11-15T07:57:49;95853.13;;;5.65;100.00
40708;BME280;26392;42.696;23.350;2022-11-15T08:00:14;95843.78;;;5.60;100.00
40708;BME280;26392;42.696;23.350;2022-11-15T08:02:40;95845.25;;;5.63;100.00
40708;BME280;26392;42.696;23.350;2022-11-15T08:05:06;95846.44;;;5.80;100.00
40708;BME280;26392;42.696;23.350;2022-11-15T08:07:32;95840.81;;;5.89;100.00
40708;BME280;26392;42.696;23.350;2022-11-15T08:09:57;95846.22;;;5.82;99.64
40708;BME280;26392;42.696;23.350;2022-11-15T08:12:23;95846.84;;;5.97;99.46
40708;BME280;26392;42.696;23.350;2022-11-15T08:14:49;95842.06;;;5.99;99.61
40708;BME280;26392;42.696;23.350;2022-11-15T08:17:15;95841.63;;;6.02;98.69
40708;BME280;26392;42.696;23.350;2022-11-15T08:19:40;95840.16;;;6.00;98.96
40708;BME280;26392;42.696;23.350;2022-11-15T08:22:06;95847.63;;;6.04;98.77
40708;BME280;26392;42.696;23.350;2022-11-15T08:24:31;95833.06;;;6.05;98.59
40708;BME280;26392;42.696;23.350;2022-11-15T08:26:57;95836.63;;;5.99;99.15
40708;BME280;26392;42.696;23.350;2022-11-15T08:29:22;95838.25;;;6.07;99.04
40708;BME280;26392;42.696;23.350;2022-11-15T08:31:48;95834.06;;;6.18;98.94
40708;BME280;26392;42.696;23.350;2022-11-15T08:34:13;95826.31;;;6.28;98.51
40708;BME280;26392;42.696;23.350;2022-11-15T08:36:38;95835.03;;;6.30;97.76
40708;BME280;26392;42.696;23.350;2022-11-15T08:39:04;95829.78;;;6.42;97.92
40708;BME280;26392;42.696;23.350;2022-11-15T08:41:32;95828.88;;;6.55;96.92
40708;BME280;26392;42.696;23.350;2022-11-15T08:43:58;95823.78;;;6.33;96.99
40708;BME280;26392;42.696;23.350;2022-11-15T08:46:24;95812.88;;;6.46;96.64
40708;BME280;26392;42.696;23.350;2022-11-15T08:48:50;95815.94;;;6.57;96.83
40708;BME280;26392;42.696;23.350;2022-11-15T08:51:15;95813.81;;;6.65;96.23
40708;BME280;26392;42.696;23.350;2022-11-15T08:53:41;95817.34;;;6.66;95.82
40708;BME280;26392;42.696;23.350;2022-11-15T08:56:08;95808.44;;;6.59;95.85
40708;BME280;26392;42.696;23.350;2022-11-15T08:58:34;95812.53;;;6.68;95.68
40708;BME280;26392;42.696;23.350;2022-11-15T09:00:59;95809.31;;;6.53;95.77
40708;BME280;26392;42.696;23.350;2022-11-15T09:03:25;95805.13;;;6.57;95.98
40708;BME280;26392;42.696;23.350;2022-11-15T09:05:58;95791.63;;;6.50;95.94
40708;BME280;26392;42.696;23.350;2022-11-15T09:08:24;95796.19;;;6.49;96.11
40708;BME280;26392;42.696;23.350;2022-11-15T09:10:50;95790.84;;;6.43;96.12
40708;BME280;26392;42.696;23.350;2022-11-15T09:13:15;95793.06;;;6.53;96.69
40708;BME280;26392;42.696;23.350;2022-11-15T09:15:41;95782.41;;;6.58;96.45
40708;BME280;26392;42.696;23.350;2022-11-15T09:18:06;95783.97;;;6.40;96.18
40708;BME280;26392;42.696;23.350;2022-11-15T09:20:32;95782.47;;;6.13;97.75
40708;BME280;26392;42.696;23.350;2022-11-15T09:23:02;95780.75;;;6.25;98.76
40708;BME280;26392;42.696;23.350;2022-11-15T09:25:28;95771.44;;;6.14;98.79
40708;BME280;26392;42.696;23.350;2022-11-15T09:27:54;95774.09;;;6.21;98.72
40708;BME280;26392;42.696;23.350;2022-11-15T09:30:20;95772.97;;;6.35;98.97
40708;BME280;26392;42.696;23.350;2022-11-15T09:32:45;95769.31;;;6.55;98.22
40708;BME280;26392;42.696;23.350;2022-11-15T09:35:10;95763.44;;;6.58;97.24
40708;BME280;26392;42.696;23.350;2022-11-15T09:37:36;95761.03;;;6.75;96.80
40708;BME280;26392;42.696;23.350;2022-11-15T09:40:02;95764.91;;;6.85;95.91
40708;BME280;26392;42.696;23.350;2022-11-15T09:50:51;95745.56;;;7.07;94.99
40708;BME280;26392;42.696;23.350;2022-11-15T09:53:42;95748.81;;;7.15;94.39
40708;BME280;26392;42.696;23.350;2022-11-15T09:56:20;95741.38;;;7.29;93.33
40708;BME280;26392;42.696;23.350;2022-11-15T10:04:03;95721.75;;;7.34;92.38
40708;BME280;26392;42.696;23.350;2022-11-15T10:06:29;95716.84;;;7.61;92.02
40708;BME280;26392;42.696;23.350;2022-11-15T10:08:58;95711.41;;;7.79;90.77
40708;BME280;26392;42.696;23.350;2022-11-15T10:11:30;95712.53;;;7.72;90.79
40708;BME280;26392;42.696;23.350;2022-11-15T10:14:00;95710.13;;;7.82;89.90
40708;BME280;26392;42.696;23.350;2022-11-15T10:16:35;95700.47;;;7.86;89.57
40708;BME280;26392;42.696;23.350;2022-11-15T10:24:44;95701.22;;;8.23;86.91
40708;BME280;26392;42.696;23.350;2022-11-15T10:27:17;95696.75;;;8.29;87.72
40708;BME280;26392;42.696;23.350;2022-11-15T10:29:48;95687.06;;;8.63;86.94
40708;BME280;26392;42.696;23.350;2022-11-15T10:32:18;95687.13;;;8.45;85.66
40708;BME280;26392;42.696;23.350;2022-11-15T10:34:44;95680.41;;;8.17;87.19
40708;BME280;26392;42.696;23.350;2022-11-15T10:37:10;95673.81;;;8.13;87.22
40708;BME280;26392;42.696;23.350;2022-11-15T10:39:36;95662.63;;;8.21;87.74
40708;BME280;26392;42.696;23.350;2022-11-15T10:42:25;95661.00;;;8.32;87.10
40708;BME280;26392;42.696;23.350;2022-11-15T10:44:50;95657.13;;;8.40;87.09
40708;BME280;26392;42.696;23.350;2022-11-15T10:47:30;95658.16;;;8.27;87.42
40708;BME280;26392;42.696;23.350;2022-11-15T10:50:05;95650.84;;;8.27;87.06
40708;BME280;26392;42.696;23.350;2022-11-15T10:52:33;95642.81;;;8.33;86.97
40708;BME280;26392;42.696;23.350;2022-11-15T10:55:03;95646.72;;;8.37;87.04
40708;BME280;26392;42.696;23.350;2022-11-15T10:57:38;95639.97;;;8.27;87.28
40708;BME280;26392;42.696;23.350;2022-11-15T11:00:28;95644.91;;;8.49;86.64
40708;BME280;26392;42.696;23.350;2022-11-15T11:03:00;95624.94;;;8.67;86.32
40708;BME280;26392;42.696;23.350;2022-11-15T11:05:30;95620.09;;;8.81;85.38
40708;BME280;26392;42.696;23.350;2022-11-15T11:10:28;95619.03;;;9.05;83.97
40708;BME280;26392;42.696;23.350;2022-11-15T11:12:53;95616.91;;;8.95;83.55
40708;BME280;26392;42.696;23.350;2022-11-15T11:15:19;95613.25;;;8.90;84.31
40708;BME280;26392;42.696;23.350;2022-11-15T11:17:58;95611.59;;;8.65;84.66
40708;BME280;26392;42.696;23.350;2022-11-15T11:20:37;95612.19;;;8.67;85.63
40708;BME280;26392;42.696;23.350;2022-11-15T11:28:33;95600.69;;;8.30;87.46
40708;BME280;26392;42.696;23.350;2022-11-15T11:37:34;95580.19;;;8.46;86.84
40708;BME280;26392;42.696;23.350;2022-11-15T11:48:18;95549.44;;;8.10;89.04
40708;BME280;26392;42.696;23.350;2022-11-15T11:50:45;95546.00;;;8.03;89.28
40708;BME280;26392;42.696;23.350;2022-11-15T11:53:22;95546.00;;;8.03;89.94
40708;BME280;26392;42.696;23.350;2022-11-15T11:55:57;95543.19;;;8.10;90.10
40708;BME280;26392;42.696;23.350;2022-11-15T12:03:41;95519.97;;;8.49;88.74
40708;BME280;26392;42.696;23.350;2022-11-15T12:06:29;95522.91;;;8.59;88.49
40708;BME280;26392;42.696;23.350;2022-11-15T12:15:32;95498.59;;;8.52;88.19
40708;BME280;26392;42.696;23.350;2022-11-15T12:17:28;95504.38;;;8.56;89.02
40708;BME280;26392;42.696;23.350;2022-11-15T12:19:58;95502.59;;;8.62;88.16
40708;BME280;26392;42.696;23.350;2022-11-15T12:27:47;95492.56;;;8.15;90.80
40708;BME280;26392;42.696;23.350;2022-11-15T12:30:20;95481.25;;;8.18;91.23
40708;BME280;26392;42.696;23.350;2022-11-15T12:32:59;95488.56;;;8.29;90.52
40708;BME280;26392;42.696;23.350;2022-11-15T12:37:55;95472.16;;;8.48;89.37
40708;BME280;26392;42.696;23.350;2022-11-15T12:45:39;95464.47;;;8.45;89.51
40708;BME280;26392;42.696;23.350;2022-11-15T12:50:59;95452.75;;;8.68;89.17
40708;BME280;26392;42.696;23.350;2022-11-15T12:53:27;95458.66;;;8.77;89.31
40708;BME280;26392;42.696;23.350;2022-11-15T12:56:20;95457.91;;;8.81;88.61
40708;BME280;26392;42.696;23.350;2022-11-15T12:58:47;95449.91;;;8.74;88.19
40708;BME280;26392;42.696;23.350;2022-11-15T13:11:58;95440.53;;;8.94;87.43
40708;BME280;26392;42.696;23.350;2022-11-15T13:14:58;95431.56;;;8.82;87.43
40708;BME280;26392;42.696;23.350;2022-11-15T13:17:34;95433.50;;;8.69;88.72
40708;BME280;26392;42.696;23.350;2022-11-15T13:22:41;95426.13;;;8.82;88.84
40708;BME280;26392;42.696;23.350;2022-11-15T13:27:48;95412.38;;;8.71;88.74
40708;BME280;26392;42.696;23.350;2022-11-15T13:30:26;95422.00;;;8.79;88.71
40708;BME280;26392;42.696;23.350;2022-11-15T13:32:52;95424.38;;;8.76;88.84
40708;BME280;26392;42.696;23.350;2022-11-15T13:35:23;95408.78;;;8.83;88.69
40708;BME280;26392;42.696;23.350;2022-11-15T13:37:50;95422.84;;;8.80;89.10
40708;BME280;26392;42.696;23.350;2022-11-15T13:40:18;95408.47;;;8.67;89.49
40708;BME280;26392;42.696;23.350;2022-11-15T13:42:45;95417.44;;;8.68;89.76
40708;BME280;26392;42.696;23.350;2022-11-15T13:45:14;95412.38;;;8.71;89.47
40708;BME280;26392;42.696;23.350;2022-11-15T13:47:40;95425.25;;;8.64;89.58
40708;BME280;26392;42.696;23.350;2022-11-15T13:50:09;95408.72;;;8.66;90.04
40708;BME280;26392;42.696;23.350;2022-11-15T13:52:37;95410.56;;;8.77;89.88
40708;BME280;26392;42.696;23.350;2022-11-15T13:55:14;95414.13;;;8.78;89.09
40708;BME280;26392;42.696;23.350;2022-11-15T13:57:48;95399.88;;;8.59;89.85
40708;BME280;26392;42.696;23.350;2022-11-15T14:00:38;95405.31;;;8.59;90.70
40708;BME280;26392;42.696;23.350;2022-11-15T14:03:17;95394.22;;;8.48;90.70
40708;BME280;26392;42.696;23.350;2022-11-15T14:05:46;95404.38;;;8.53;91.17
40708;BME280;26392;42.696;23.350;2022-11-15T14:08:27;95410.06;;;8.51;90.63
40708;BME280;26392;42.696;23.350;2022-11-15T14:11:16;95405.69;;;8.50;91.07
40708;BME280;26392;42.696;23.350;2022-11-15T14:14:02;95401.44;;;8.43;91.52
40708;BME280;26392;42.696;23.350;2022-11-15T14:16:43;95398.84;;;8.36;92.03
40708;BME280;26392;42.696;23.350;2022-11-15T14:22:09;95395.91;;;8.38;92.59
40708;BME280;26392;42.696;23.350;2022-11-15T14:24:35;95393.41;;;8.36;92.47
40708;BME280;26392;42.696;23.350;2022-11-15T14:29:46;95393.91;;;8.21;93.31
40708;BME280;26392;42.696;23.350;2022-11-15T14:32:26;95386.13;;;8.13;93.24
40708;BME280;26392;42.696;23.350;2022-11-15T14:35:00;95402.19;;;8.03;94.14
40708;BME280;26392;42.696;23.350;2022-11-15T14:37:27;95402.31;;;7.84;95.25
40708;BME280;26392;42.696;23.350;2022-11-15T14:39:53;95399.81;;;7.83;96.08
40708;BME280;26392;42.696;23.350;2022-11-15T14:42:20;95399.22;;;7.81;96.52
40708;BME280;26392;42.696;23.350;2022-11-15T14:44:45;95395.81;;;7.74;96.92
40708;BME280;26392;42.696;23.350;2022-11-15T14:47:11;95403.13;;;7.73;96.81
40708;BME280;26392;42.696;23.350;2022-11-15T14:49:36;95401.13;;;7.69;97.04
40708;BME280;26392;42.696;23.350;2022-11-15T14:52:02;95405.59;;;7.63;97.70
40708;BME280;26392;42.696;23.350;2022-11-15T14:54:29;95407.22;;;7.52;97.95
40708;BME280;26392;42.696;23.350;2022-11-15T14:56:54;95396.84;;;7.49;98.33
40708;BME280;26392;42.696;23.350;2022-11-15T14:59:20;95398.94;;;7.35;99.02
40708;BME280;26392;42.696;23.350;2022-11-15T15:01:45;95399.41;;;7.32;99.24
40708;BME280;26392;42.696;23.350;2022-11-15T15:04:10;95402.00;;;7.27;99.37
40708;BME280;26392;42.696;23.350;2022-11-15T15:06:36;95402.78;;;7.16;100.00
40708;BME280;26392;42.696;23.350;2022-11-15T15:09:02;95398.31;;;7.10;100.00
40708;BME280;26392;42.696;23.350;2022-11-15T15:11:31;95391.78;;;6.99;100.00
40708;BME280;26392;42.696;23.350;2022-11-15T15:13:57;95394.41;;;7.06;100.00